X  Sluiten METAR luchtvaart weer gegevens         EDDG Twente
Temperatuur
21°C Temperatuur
12°C Dauwpunt
56% Vochtigheid



Wind
7 M/S
16 MPH
26 KM/U
14 KTS



210°
ZZW
Huidig weer

Mostly Sunny Grotendeels zonnig
Luchtdruk 1011 (hPa) - 29.85 (inHg)
Zicht 6 (mijl) - 10 (km)
Vliegveld
Vliegveld code EDDG

Locatie : Twente
Afstand: 7 (km)

Metar:
METAR EDDG 161650Z AUTO 21014KT 180V240 9999 FEW035 21/12 Q1011 NOSIG

Tijd: 16-07-2024 18:50 CEST